Bookmark and Share
Track history (hours):
 

Butes

Last reported at 2014-Apr-19 22:15 UTC. Time now 2014-Apr-21 15:14 UTC.
Position N 50°15' W 001°36'.

Length 90 m; draft 5.5 m.

Type: Cargo ship. MMSI: 636091937.

NotesDate/timePositionNaut miles runAvg speedWind from/ knotsBaromVisibWave heightAir tempDewpointWater temp
2014-Apr-19 22:15N 50°15' W 001°36'3 4.3
2014-Apr-19 21:29N 50°16' W 001°32'5 5.4
2014-Apr-19 20:34N 50°18' W 001°24'7 6.9
2014-Apr-19 19:33N 50°21' W 001°15'5 4.7
2014-Apr-19 18:32N 50°23' W 001°08'1010.2
2014-Apr-19 17:33N 50°27' W 000°54'1311.6
2014-Apr-19 16:27N 50°28' W 000°34'2310.6
2014-Apr-19 14:14N 50°33' E 000°03'9 8.9
2014-Apr-19 13:16N 50°35' E 000°16'6 8.1
2014-Apr-19 12:34N 50°36' E 000°25'8 7.5
2014-Apr-19 11:33N 50°39' E 000°36'8 8.2
2014-Apr-19 10:33N 50°43' E 000°47'2210.3
2014-Apr-19 08:26N 50°57' E 001°14'1010.2
2014-Apr-19 07:26N 51°03' E 001°26'8 9.4
2014-Apr-19 06:34N 51°09' E 001°36'7 7.1
2014-Apr-19 05:33N 51°13' E 001°45'6 5.6
2014-Apr-19 04:32N 51°18' E 001°50'5 5.1
2014-Apr-19 03:31N 51°23' E 001°54'6 4.9
2014-Apr-19 02:20N 51°25' E 002°03'5 6.5
2014-Apr-19 01:33N 51°23' E 002°10'6 5.6
2014-Apr-19 00:33N 51°21' E 002°18'7 7.5
2014-Apr-18 23:34N 51°23' E 002°30'7 7.4
2014-Apr-18 22:33N 51°22' E 002°42'9 8.4
2014-Apr-18 21:32N 51°23' E 002°55'10 9.9
2014-Apr-18 20:33N 51°24' E 003°11'1111.5
2014-Apr-18 19:33N 51°25' E 003°29'1010.5
2014-Apr-18 18:33N 51°22' E 003°45'10 9.7
2014-Apr-18 17:34N 51°26' E 003°59'7 7.2
2014-Apr-18 16:33N 51°23' E 004°10'5 5.4
2014-Apr-18 15:34N 51°21' E 004°17'0 0.2
2014-Apr-18 14:34N 51°21' E 004°18'1 0.6
2014-Apr-18 13:16N 51°22' E 004°17'0 0.0
2014-Apr-18 12:31N 51°22' E 004°17'0 0.0
2014-Apr-18 11:16N 51°22' E 004°17'0 0.0
2014-Apr-18 10:13N 51°22' E 004°17'0 0.0
2014-Apr-18 09:28N 51°22' E 004°17'0 0.0
2014-Apr-18 08:28N 51°22' E 004°17'0 0.0
2014-Apr-18 07:31N 51°22' E 004°17'0 0.0
2014-Apr-18 06:28N 51°22' E 004°17'0 0.0
2014-Apr-18 05:31N 51°22' E 004°17'0 0.0
2014-Apr-18 04:31N 51°22' E 004°17'0 0.0
2014-Apr-18 03:16N 51°22' E 004°17'0 0.0
2014-Apr-18 02:25N 51°22' E 004°17'0 0.0
2014-Apr-18 01:31N 51°22' E 004°17'0 0.0
2014-Apr-18 00:25N 51°22' E 004°17'0 0.0
2014-Apr-17 23:22N 51°22' E 004°17'0 0.0
2014-Apr-17 22:25N 51°22' E 004°17'0 0.0
2014-Apr-17 21:31N 51°22' E 004°17'0 0.0
2014-Apr-17 20:31N 51°22' E 004°17'0 0.0
2014-Apr-17 19:31N 51°22' E 004°17'0 0.0
2014-Apr-17 18:28N 51°22' E 004°17'0 0.0
2014-Apr-17 17:31N 51°22' E 004°17'0 0.0
2014-Apr-17 14:31N 51°22' E 004°17'0 0.0
2014-Apr-17 13:19N 51°22' E 004°17'0 0.0
2014-Apr-17 12:31N 51°22' E 004°17'0 0.0
2014-Apr-17 11:28N 51°22' E 004°17'0 0.0
2014-Apr-17 10:31N 51°22' E 004°17'0 0.0
2014-Apr-17 08:31N 51°22' E 004°17'0 0.1
2014-Apr-17 07:33N 51°22' E 004°17'1 0.9
2014-Apr-17 06:34N 51°21' E 004°17'3 2.9
2014-Apr-17 05:33N 51°22' E 004°13'7 6.8
2014-Apr-17 04:34N 51°23' E 004°02'5 5.1
2014-Apr-17 03:33N 51°22' E 003°54'8 8.4
2014-Apr-17 02:33N 51°25' E 003°42'1111.0
2014-Apr-17 01:33N 51°24' E 003°24'1413.5
2014-Apr-17 00:33N 51°22' E 003°03'1211.7
2014-Apr-16 23:33N 51°22' E 002°44'10 9.7
2014-Apr-16 22:33N 51°21' E 002°29'8 8.4
2014-Apr-16 21:33N 51°18' E 002°17'8 7.7
2014-Apr-16 20:33N 51°14' E 002°06'8 7.6
2014-Apr-16 19:32N 51°10' E 001°55'8 7.5
2014-Apr-16 18:29N 51°06' E 001°45'  

Dump ship's entire track history

sailing weather and tide predictions

Butes — A8UR6 — position and weather